createdAt,value
2023-02-19T00:00:25.139Z,29.5
2023-02-19T00:05:25.119Z,24.3
2023-02-19T00:10:25.117Z,23.8
2023-02-19T00:15:25.115Z,28
2023-02-19T00:20:25.123Z,25.8
2023-02-19T00:25:25.114Z,22.7
2023-02-19T00:30:25.166Z,23.6
2023-02-19T00:35:25.118Z,28.6
2023-02-19T00:40:25.140Z,27.2
2023-02-19T00:45:25.113Z,24.5
2023-02-19T00:50:25.126Z,20.8
2023-02-19T00:55:25.125Z,21
2023-02-19T01:00:25.137Z,20.9
2023-02-19T01:05:25.130Z,28
2023-02-19T01:10:25.131Z,27.5
2023-02-19T01:15:25.119Z,27.4
2023-02-19T01:20:25.127Z,22.8
2023-02-19T01:25:25.117Z,23.4
2023-02-19T01:30:25.149Z,17.6
2023-02-19T01:35:25.111Z,23.9
2023-02-19T01:40:25.122Z,25.4
2023-02-19T01:45:25.101Z,21.9
2023-02-19T01:50:25.111Z,24.4
2023-02-19T01:55:25.220Z,24.1
2023-02-19T02:00:25.113Z,21.5
2023-02-19T02:05:25.113Z,26.5
2023-02-19T02:10:25.113Z,21.8
2023-02-19T02:15:25.106Z,28.3
2023-02-19T02:20:25.122Z,26.9
2023-02-19T02:25:25.116Z,32.8
2023-02-19T02:30:25.292Z,26.7
2023-02-19T02:35:25.111Z,44.8
2023-02-19T02:40:25.111Z,32.1
2023-02-19T02:45:25.147Z,31
2023-02-19T02:50:25.134Z,34.3
2023-02-19T02:55:25.122Z,33.2
2023-02-19T03:00:25.118Z,32.6
2023-02-19T03:05:25.105Z,38.5
2023-02-19T03:10:25.120Z,39.1
2023-02-19T03:15:25.102Z,33.7
2023-02-19T03:20:25.122Z,36.1
2023-02-19T03:25:25.100Z,31.9
2023-02-19T03:30:25.214Z,36.4
2023-02-19T03:35:25.105Z,35.4
2023-02-19T03:40:25.103Z,37.2
2023-02-19T03:45:25.116Z,40.3
2023-02-19T03:50:25.116Z,36.6
2023-02-19T03:55:25.104Z,33.4
2023-02-19T04:00:25.099Z,31.9
2023-02-19T04:05:25.119Z,38
2023-02-19T04:10:25.111Z,31
2023-02-19T04:15:25.116Z,30.8
2023-02-19T04:20:25.116Z,33.2
2023-02-19T04:25:25.117Z,26.7
2023-02-19T04:30:25.143Z,29.4
2023-02-19T04:35:25.116Z,35.7
2023-02-19T04:40:25.103Z,38.8
2023-02-19T04:45:25.104Z,34.1
2023-02-19T04:50:25.101Z,26.4
2023-02-19T04:55:25.103Z,41.9
2023-02-19T05:00:25.107Z,33.7
2023-02-19T05:05:25.093Z,22.2
2023-02-19T05:10:25.104Z,32.1
2023-02-19T05:15:25.107Z,27.8
2023-02-19T05:20:25.106Z,31.2
2023-02-19T05:25:25.109Z,32.1
2023-02-19T05:30:25.227Z,37.4
2023-02-19T05:35:25.104Z,33.9
2023-02-19T05:40:25.113Z,29.8
2023-02-19T05:45:25.105Z,39.1
2023-02-19T05:50:25.113Z,34.3
2023-02-19T05:55:25.106Z,33.4
2023-02-19T06:00:25.110Z,37.4
2023-02-19T06:05:25.106Z,25.7
2023-02-19T06:10:25.112Z,29.4
2023-02-19T06:15:25.101Z,31.7
2023-02-19T06:20:26.339Z,27.9
2023-02-19T06:25:25.104Z,24
2023-02-19T06:30:25.174Z,30.3
2023-02-19T06:35:25.109Z,32.3
2023-02-19T06:40:25.117Z,30.3
2023-02-19T06:45:25.117Z,35.2
2023-02-19T06:50:25.118Z,28
2023-02-19T06:55:25.111Z,36.4
2023-02-19T07:00:25.102Z,34.1
2023-02-19T07:05:25.114Z,29.2
2023-02-19T07:10:25.112Z,30.5
2023-02-19T07:15:25.096Z,27.8
2023-02-19T07:20:25.105Z,31.5
2023-02-19T07:25:25.115Z,32.3
2023-02-19T07:30:25.162Z,32.8
2023-02-19T07:35:25.114Z,22.3
2023-02-19T07:40:25.104Z,26.1
2023-02-19T07:45:25.122Z,19.2
2023-02-19T07:50:25.118Z,23.7
2023-02-19T07:55:25.093Z,25.7
2023-02-19T08:00:25.100Z,24.3
2023-02-19T08:05:25.101Z,22.5
2023-02-19T08:10:25.106Z,20.8
2023-02-19T08:15:25.122Z,28.2
2023-02-19T08:20:25.102Z,30.3
2023-02-19T08:25:25.104Z,21.4
2023-02-19T08:30:25.257Z,17.3
2023-02-19T08:35:25.111Z,15.1
2023-02-19T08:40:25.178Z,24.3
2023-02-19T08:45:25.101Z,24.3
2023-02-19T08:50:25.183Z,28
2023-02-19T08:55:25.098Z,22.6
2023-02-19T09:00:25.099Z,19.3
2023-02-19T09:05:25.104Z,21.9
2023-02-19T09:10:25.103Z,30
2023-02-19T09:15:25.159Z,30.3
2023-02-19T09:20:25.111Z,30.6
2023-02-19T09:25:25.105Z,24.9
2023-02-19T09:30:25.167Z,32.3
2023-02-19T09:35:25.114Z,26.7
2023-02-19T09:40:25.100Z,27.6
2023-02-19T09:45:25.147Z,30.5
2023-02-19T09:50:25.110Z,28.2
2023-02-19T09:55:25.108Z,24.1
2023-02-19T10:00:25.126Z,27.4
2023-02-19T10:05:25.121Z,23.7
2023-02-19T10:10:25.109Z,32.8
2023-02-19T10:15:25.115Z,32.1
2023-02-19T10:20:25.101Z,35.7
2023-02-19T10:25:25.107Z,24.1
2023-02-19T10:30:25.174Z,22.6
2023-02-19T10:35:25.089Z,31.9
2023-02-19T10:40:25.107Z,27.4
2023-02-19T10:45:25.105Z,39.1
2023-02-19T10:50:25.117Z,27.8
2023-02-19T10:55:25.108Z,35.7
2023-02-19T11:00:25.115Z,35.7
2023-02-19T11:05:25.141Z,24.4
2023-02-19T11:10:25.108Z,21.1
2023-02-19T11:15:25.098Z,25.1
2023-02-19T11:20:25.100Z,19.1
2023-02-19T11:25:25.090Z,30.5
2023-02-19T11:30:25.131Z,25.3
2023-02-19T11:35:25.109Z,24.3
2023-02-19T11:40:25.113Z,31.7
2023-02-19T11:45:25.109Z,27.2
2023-02-19T11:50:25.107Z,34.1
2023-02-19T11:55:25.110Z,33
2023-02-19T12:00:25.113Z,32.8
2023-02-19T12:05:25.159Z,19.9
2023-02-19T12:10:25.100Z,22
2023-02-19T12:15:25.107Z,24
2023-02-19T12:20:25.111Z,32.8
2023-02-19T12:25:25.105Z,28.5
2023-02-19T12:30:25.194Z,22.3
2023-02-19T12:35:25.099Z,31.7
2023-02-19T12:40:25.107Z,24.1
2023-02-19T12:45:25.096Z,20.5
2023-02-19T12:50:25.098Z,28.3
2023-02-19T12:55:25.102Z,27.8
2023-02-19T13:00:25.123Z,23.6
2023-02-19T13:05:25.094Z,22.4
2023-02-19T13:10:25.126Z,28
2023-02-19T13:15:25.112Z,28.6
2023-02-19T13:20:25.126Z,25.3
2023-02-19T13:25:25.119Z,33.7
2023-02-19T13:30:25.142Z,28.8
2023-02-19T13:35:25.115Z,39.7
2023-02-19T13:40:25.110Z,27.1
2023-02-19T13:45:25.102Z,26.5
2023-02-19T13:50:25.120Z,25.9
2023-02-19T13:55:25.109Z,37.4
2023-02-19T14:00:25.122Z,38
2023-02-19T14:05:25.101Z,25.3
2023-02-19T14:10:25.175Z,23.5
2023-02-19T14:15:25.243Z,34.5
2023-02-19T14:20:25.099Z,36.9
2023-02-19T14:25:25.098Z,27.1
2023-02-19T14:30:25.116Z,19.9
2023-02-19T14:35:25.271Z,21.1
2023-02-19T14:40:25.106Z,24.4
2023-02-19T14:45:25.104Z,29.1
2023-02-19T14:50:25.102Z,25.9
2023-02-19T14:55:25.105Z,15
2023-02-19T15:00:25.114Z,16.8
2023-02-19T15:05:25.113Z,19.8
2023-02-19T15:10:25.121Z,19.2
2023-02-19T15:15:25.099Z,25.6
2023-02-19T15:20:25.107Z,25.6
2023-02-19T15:25:25.107Z,15
2023-02-19T15:30:25.131Z,17.5
2023-02-19T15:35:25.110Z,31
2023-02-19T15:40:25.106Z,20.8
2023-02-19T15:45:25.107Z,21.9
2023-02-19T15:50:25.114Z,22.9
2023-02-19T15:55:25.104Z,18.9
2023-02-19T16:00:25.321Z,16.5
2023-02-19T16:05:25.110Z,13.3
2023-02-19T16:10:25.112Z,19.9
2023-02-19T16:15:25.113Z,14.4
2023-02-19T16:20:25.115Z,13.2
2023-02-19T16:25:25.104Z,11.1
2023-02-19T16:30:25.236Z,9.1
2023-02-19T16:35:25.104Z,13.8
2023-02-19T16:40:25.116Z,10.9
2023-02-19T16:45:27.360Z,14.3
2023-02-19T16:50:25.115Z,10.8
2023-02-19T16:55:25.110Z,14.5
2023-02-19T17:00:25.119Z,20.3
2023-02-19T17:05:25.111Z,18
2023-02-19T17:10:25.135Z,17.5
2023-02-19T17:15:25.111Z,15.9
2023-02-19T17:20:25.120Z,16.9
2023-02-19T17:25:25.115Z,14.6
2023-02-19T17:30:25.154Z,20.4
2023-02-19T17:35:25.104Z,19.2
2023-02-19T17:40:32.563Z,20
2023-02-19T17:45:25.099Z,17.9
2023-02-19T17:50:25.105Z,22.2
2023-02-19T17:55:25.108Z,17.6
2023-02-19T18:00:25.107Z,14.9
2023-02-19T18:05:25.171Z,21.5
2023-02-19T18:10:25.122Z,14.8
2023-02-19T18:15:25.113Z,12.6
2023-02-19T18:20:25.127Z,17.8
2023-02-19T18:25:25.128Z,18.6
2023-02-19T18:30:25.300Z,18.6
2023-02-19T18:35:25.106Z,14.7
2023-02-19T18:40:25.110Z,14.2
2023-02-19T18:45:25.110Z,19.2
2023-02-19T18:50:25.109Z,14.3
2023-02-19T18:55:25.123Z,17.3
2023-02-19T19:00:25.105Z,19.5
2023-02-19T19:05:25.105Z,15
2023-02-19T19:10:25.139Z,16.7
2023-02-19T19:15:25.177Z,16.2
2023-02-19T19:20:25.105Z,14.6
2023-02-19T19:25:25.106Z,13.2
2023-02-19T19:30:25.185Z,16.2
2023-02-19T19:35:25.114Z,16
2023-02-19T19:40:25.145Z,19.1
2023-02-19T19:45:25.149Z,19.2
2023-02-19T19:50:25.117Z,18.4
2023-02-19T19:55:25.108Z,18.6
2023-02-19T20:00:25.110Z,18.6
2023-02-19T20:05:25.106Z,15.5
2023-02-19T20:10:25.122Z,22.3
2023-02-19T20:15:25.114Z,17.7
2023-02-19T20:20:25.109Z,12.4
2023-02-19T20:25:25.105Z,17.2
2023-02-19T20:30:25.134Z,13.7
2023-02-19T20:35:26.460Z,13.5
2023-02-19T20:40:25.108Z,13.9
2023-02-19T20:45:25.108Z,13.9
2023-02-19T20:50:25.112Z,12.7
2023-02-19T20:55:25.108Z,12.3
2023-02-19T21:00:25.114Z,16.9
2023-02-19T21:05:25.164Z,17.5
2023-02-19T21:10:25.136Z,14.4
2023-02-19T21:15:25.105Z,18.7
2023-02-19T21:20:25.124Z,18.2
2023-02-19T21:25:25.108Z,17.9
2023-02-19T21:30:25.142Z,18.5
2023-02-19T21:35:25.106Z,19.6
2023-02-19T21:40:25.105Z,19.6
2023-02-19T21:45:25.113Z,22.6
2023-02-19T21:50:25.108Z,15.8
2023-02-19T21:55:25.105Z,14.6
2023-02-19T22:00:25.118Z,15.6
2023-02-19T22:05:25.104Z,16.3
2023-02-19T22:10:25.103Z,18
2023-02-19T22:15:25.090Z,15.6
2023-02-19T22:20:25.100Z,21.5
2023-02-19T22:25:25.102Z,24
2023-02-19T22:30:25.195Z,14.8
2023-02-19T22:35:25.116Z,15.7
2023-02-19T22:40:25.107Z,18.5
2023-02-19T22:45:25.096Z,18
2023-02-19T22:50:25.099Z,17.6
2023-02-19T22:55:25.102Z,15.4
2023-02-19T23:00:25.100Z,18.2
2023-02-19T23:05:25.108Z,17.7
2023-02-19T23:10:25.103Z,13.3
2023-02-19T23:15:25.110Z,11.1
2023-02-19T23:20:25.112Z,11.4
2023-02-19T23:25:25.100Z,10.8
2023-02-19T23:30:25.177Z,14.1
2023-02-19T23:35:25.118Z,17.5
2023-02-19T23:40:25.105Z,17.9
2023-02-19T23:45:25.104Z,17.9
2023-02-19T23:50:25.101Z,17.5
2023-02-19T23:55:25.099Z,13.6
